createdAt,value
2022-10-24T00:01:47.584Z,99789.69
2022-10-24T00:04:16.156Z,99780.81
2022-10-24T00:06:44.495Z,99783.50
2022-10-24T00:09:12.897Z,99785.34
2022-10-24T00:11:43.767Z,99787.38
2022-10-24T00:14:12.662Z,99792.75
2022-10-24T00:16:41.150Z,99787.38
2022-10-24T00:19:09.467Z,99800.78
2022-10-24T00:21:37.816Z,99801.00
2022-10-24T00:24:06.733Z,99806.34
2022-10-24T00:26:35.177Z,99808.00
2022-10-24T00:29:03.663Z,99798.72
2022-10-24T00:31:32.615Z,99794.41
2022-10-24T00:34:01.058Z,99793.38
2022-10-24T00:36:30.178Z,99777.09
2022-10-24T00:38:58.539Z,99782.03
2022-10-24T00:41:37.967Z,99783.69
2022-10-24T00:44:31.453Z,99778.34
2022-10-24T00:50:16.706Z,99771.56
2022-10-24T00:52:47.787Z,99772.16
2022-10-24T00:55:16.896Z,99769.47
2022-10-24T00:57:54.897Z,99782.03
2022-10-24T01:00:30.861Z,99785.53
2022-10-24T01:02:59.242Z,99781.44
2022-10-24T01:05:33.691Z,99771.56
2022-10-24T01:08:32.705Z,99770.72
2022-10-24T01:11:31.076Z,99779.59
2022-10-24T01:14:06.654Z,99780.19
2022-10-24T01:17:07.388Z,99786.38
2022-10-24T01:19:56.312Z,99781.03
2022-10-24T01:22:32.582Z,99774.22
2022-10-24T01:25:39.371Z,99770.13
2022-10-24T01:28:18.855Z,99765.78
2022-10-24T01:30:59.053Z,99775.88
2022-10-24T01:33:36.754Z,99757.56
2022-10-24T01:36:18.375Z,99746.44
2022-10-24T01:38:54.385Z,99748.69
2022-10-24T01:41:26.442Z,99756.31
2022-10-24T01:44:05.177Z,99751.16
2022-10-24T01:46:42.888Z,99752.41
2022-10-24T01:49:21.682Z,99743.53
2022-10-24T01:51:55.771Z,99737.34
2022-10-24T01:54:24.200Z,99733.06
2022-10-24T01:56:53.436Z,99728.72
2022-10-24T01:59:28.124Z,99732.66
2022-10-24T02:02:14.742Z,99735.72
2022-10-24T02:04:53.516Z,99733.47
2022-10-24T02:07:23.099Z,99738.00
2022-10-24T02:09:59.791Z,99729.31
2022-10-24T02:12:29.831Z,99735.09
2022-10-24T02:15:06.882Z,99738.19
2022-10-24T02:17:35.483Z,99736.56
2022-10-24T02:20:04.291Z,99743.75
2022-10-24T02:22:49.061Z,99738.81
2022-10-24T02:25:28.872Z,99746.84
2022-10-24T02:28:15.947Z,99731.81
2022-10-24T02:30:52.100Z,99735.31
2022-10-24T02:33:20.583Z,99737.16
2022-10-24T02:35:52.822Z,99742.50
2022-10-24T02:38:28.298Z,99735.91
2022-10-24T02:40:58.293Z,99738.81
2022-10-24T02:43:28.645Z,99740.66
2022-10-24T02:45:59.687Z,99742.28
2022-10-24T02:48:40.053Z,99734.66
2022-10-24T02:51:08.574Z,99740.41
2022-10-24T02:53:38.045Z,99740.63
2022-10-24T02:56:06.947Z,99733.84
2022-10-24T02:58:35.308Z,99740.19
2022-10-24T03:01:04.033Z,99740.59
2022-10-24T03:03:32.437Z,99745.31
2022-10-24T03:06:01.588Z,99738.75
2022-10-24T03:08:29.947Z,99746.09
2022-10-24T03:10:58.661Z,99744.66
2022-10-24T03:13:26.633Z,99750.41
2022-10-24T03:15:54.985Z,99743.41
2022-10-24T03:18:23.300Z,99745.88
2022-10-24T03:20:51.647Z,99744.22
2022-10-24T03:23:21.840Z,99738.69
2022-10-24T03:25:50.358Z,99745.28
2022-10-24T03:28:18.679Z,99749.78
2022-10-24T03:30:47.005Z,99757.59
2022-10-24T03:33:17.350Z,99752.25
2022-10-24T03:35:46.408Z,99749.56
2022-10-24T03:38:14.920Z,99747.94
2022-10-24T03:40:43.494Z,99746.91
2022-10-24T03:43:11.847Z,99748.56
2022-10-24T03:45:40.178Z,99757.19
2022-10-24T03:48:08.793Z,99763.19
2022-10-24T03:50:37.263Z,99778.19
2022-10-24T03:53:05.883Z,99782.34
2022-10-24T03:55:34.399Z,99781.94
2022-10-24T03:58:02.945Z,99772.06
2022-10-24T04:00:32.575Z,99767.34
2022-10-24T04:03:00.948Z,99764.66
2022-10-24T04:05:29.418Z,99770.84
2022-10-24T04:07:57.868Z,99768.59
2022-10-24T04:10:26.265Z,99772.91
2022-10-24T04:12:54.670Z,99781.34
2022-10-24T04:15:23.107Z,99775.59
2022-10-24T04:17:51.564Z,99768.41
2022-10-24T04:20:22.396Z,99763.88
2022-10-24T04:22:51.009Z,99768.00
2022-10-24T04:25:19.375Z,99771.31
2022-10-24T04:27:47.775Z,99764.72
2022-10-24T04:30:17.102Z,99759.16
2022-10-24T04:32:46.369Z,99752.78
2022-10-24T04:35:15.118Z,99763.28
2022-10-24T04:37:43.518Z,99761.41
2022-10-24T04:40:12.304Z,99763.69
2022-10-24T04:42:40.991Z,99753.19
2022-10-24T04:45:10.066Z,99754.84
2022-10-24T04:47:38.685Z,99754.63
2022-10-24T04:50:07.299Z,99765.34
2022-10-24T04:52:35.664Z,99768.84
2022-10-24T04:55:04.266Z,99765.97
2022-10-24T04:57:32.666Z,99757.94
2022-10-24T05:00:01.082Z,99770.28
2022-10-24T05:02:29.464Z,99760.41
2022-10-24T05:04:57.923Z,99761.84
2022-10-24T05:07:26.217Z,99749.28
2022-10-24T05:09:54.555Z,99746.84
2022-10-24T05:12:22.852Z,99747.44
2022-10-24T05:14:51.177Z,99752.81
2022-10-24T05:17:19.581Z,99751.78
2022-10-24T05:19:48.083Z,99744.59
2022-10-24T05:22:16.394Z,99752.19
2022-10-24T05:24:44.721Z,99742.28
2022-10-24T05:27:13.056Z,99757.97
2022-10-24T05:29:41.417Z,99755.28
2022-10-24T05:32:09.770Z,99741.91
2022-10-24T05:34:38.084Z,99730.78
2022-10-24T05:37:06.440Z,99710.00
2022-10-24T05:39:34.911Z,99698.25
2022-10-24T05:42:03.611Z,99705.88
2022-10-24T05:44:32.253Z,99713.69
2022-10-24T05:47:00.693Z,99722.53
2022-10-24T05:49:29.024Z,99734.91
2022-10-24T05:51:57.365Z,99744.38
2022-10-24T05:54:30.294Z,99747.66
2022-10-24T05:57:06.352Z,99749.13
2022-10-24T05:59:34.654Z,99746.22
2022-10-24T06:02:03.029Z,99746.03
2022-10-24T06:04:31.735Z,99754.47
2022-10-24T06:07:00.084Z,99735.72
2022-10-24T06:09:28.503Z,99738.59
2022-10-24T06:11:56.867Z,99754.25
2022-10-24T06:14:25.232Z,99759.19
2022-10-24T06:16:53.597Z,99752.59
2022-10-24T06:19:22.147Z,99748.69
2022-10-24T06:21:50.468Z,99744.78
2022-10-24T06:24:18.847Z,99755.25
2022-10-24T06:26:47.143Z,99752.16
2022-10-24T06:29:15.568Z,99761.44
2022-10-24T06:31:43.929Z,99744.13
2022-10-24T06:34:12.342Z,99750.53
2022-10-24T06:39:14.173Z,99760.56
2022-10-24T06:41:42.488Z,99751.13
2022-10-24T06:44:11.264Z,99749.69
2022-10-24T06:46:40.084Z,99767.00
2022-10-24T06:49:08.828Z,99767.38
2022-10-24T06:51:37.353Z,99775.22
2022-10-24T06:54:05.788Z,99769.84
2022-10-24T06:56:34.251Z,99777.28
2022-10-24T06:59:05.626Z,99789.00
2022-10-24T07:01:35.701Z,99788.78
2022-10-24T07:04:05.292Z,99804.25
2022-10-24T07:06:34.101Z,99813.72
2022-10-24T07:09:04.630Z,99827.31
2022-10-24T07:11:34.136Z,99827.50
2022-10-24T07:14:04.517Z,99818.19
2022-10-24T07:16:35.286Z,99828.13
2022-10-24T07:19:04.026Z,99836.13
2022-10-24T07:21:34.154Z,99825.59
2022-10-24T07:24:03.052Z,99838.16
2022-10-24T07:26:32.053Z,99829.88
2022-10-24T07:31:34.348Z,99820.94
2022-10-24T07:34:05.308Z,99815.53
2022-10-24T07:36:33.682Z,99819.41
2022-10-24T07:39:02.452Z,99817.13
2022-10-24T07:41:32.926Z,99818.34
2022-10-24T07:44:02.666Z,99813.19
2022-10-24T07:46:31.543Z,99820.59
2022-10-24T07:48:59.927Z,99803.84
2022-10-24T07:51:29.789Z,99826.31
2022-10-24T07:54:01.625Z,99816.41
2022-10-24T07:56:30.026Z,99825.88
2022-10-24T07:58:58.392Z,99828.13
2022-10-24T08:01:28.206Z,99825.00
2022-10-24T08:03:57.220Z,99834.72
2022-10-24T08:06:31.135Z,99840.69
2022-10-24T08:08:59.505Z,99839.66
2022-10-24T08:11:29.951Z,99834.88
2022-10-24T08:13:58.531Z,99836.34
2022-10-24T08:16:27.404Z,99841.72
2022-10-24T08:18:58.833Z,99833.41
2022-10-24T08:21:27.799Z,99841.47
2022-10-24T08:23:56.866Z,99845.81
2022-10-24T08:26:27.207Z,99847.03
2022-10-24T08:28:57.470Z,99846.59
2022-10-24T08:31:27.457Z,99840.56
2022-10-24T08:33:56.979Z,99842.34
2022-10-24T08:36:32.576Z,99837.38
2022-10-24T08:39:01.510Z,99840.25
2022-10-24T08:41:39.908Z,99844.75
2022-10-24T08:44:31.755Z,99841.75
2022-10-24T08:47:10.318Z,99836.13
2022-10-24T08:50:00.181Z,99836.28
2022-10-24T08:52:52.973Z,99828.16
2022-10-24T08:55:44.514Z,99820.25
2022-10-24T08:58:19.859Z,99815.63
2022-10-24T09:00:51.936Z,99807.75
2022-10-24T09:03:54.983Z,99815.75
2022-10-24T09:06:28.823Z,99808.19
2022-10-24T09:09:37.321Z,99809.63
2022-10-24T09:12:15.769Z,99809.19
2022-10-24T09:14:47.109Z,99795.88
2022-10-24T09:17:24.020Z,99805.34
2022-10-24T09:19:59.691Z,99796.25
2022-10-24T09:22:33.739Z,99796.25
2022-10-24T09:25:17.752Z,99790.41
2022-10-24T09:27:46.474Z,99786.22
2022-10-24T09:30:30.046Z,99788.47
2022-10-24T09:33:12.858Z,99801.34
2022-10-24T09:35:41.530Z,99796.53
2022-10-24T09:38:25.546Z,99804.16
2022-10-24T09:41:23.155Z,99798.09
2022-10-24T09:43:59.728Z,99809.69
2022-10-24T09:46:36.502Z,99812.72
2022-10-24T09:49:22.583Z,99807.34
2022-10-24T09:52:20.371Z,99830.41
2022-10-24T09:55:06.668Z,99835.53
2022-10-24T09:57:42.151Z,99825.16
2022-10-24T10:00:29.829Z,99821.19
2022-10-24T10:03:07.725Z,99818.84
2022-10-24T10:05:50.225Z,99820.63
2022-10-24T10:08:24.421Z,99819.13
2022-10-24T10:11:09.337Z,99825.13
2022-10-24T10:13:53.439Z,99826.09
2022-10-24T10:16:30.377Z,99819.88
2022-10-24T10:19:18.397Z,99829.38
2022-10-24T10:22:08.009Z,99825.63
2022-10-24T10:24:46.170Z,99817.56
2022-10-24T10:27:43.683Z,99816.72
2022-10-24T10:30:15.170Z,99816.72
2022-10-24T10:33:08.521Z,99823.75
2022-10-24T10:36:06.696Z,99820.81
2022-10-24T10:38:51.039Z,99842.16
2022-10-24T10:41:40.528Z,99843.19
2022-10-24T10:44:32.517Z,99829.72
2022-10-24T10:47:27.473Z,99834.28
2022-10-24T10:49:59.496Z,99826.81
2022-10-24T10:52:45.988Z,99818.13
2022-10-24T10:55:33.326Z,99826.00
2022-10-24T10:58:23.027Z,99833.00
2022-10-24T11:01:23.304Z,99817.69
2022-10-24T11:04:09.290Z,99821.19
2022-10-24T11:07:24.480Z,99812.28
2022-10-24T11:09:57.702Z,99809.22
2022-10-24T11:12:53.297Z,99804.91
2022-10-24T11:15:38.868Z,99807.38
2022-10-24T11:18:13.569Z,99799.91
2022-10-24T11:20:41.904Z,99794.88
2022-10-24T11:23:48.459Z,99790.28
2022-10-24T11:26:47.601Z,99791.38
2022-10-24T11:29:53.154Z,99786.19
2022-10-24T11:32:42.607Z,99789.03
2022-10-24T11:35:33.184Z,99786.56
2022-10-24T11:38:13.786Z,99785.28
2022-10-24T11:40:44.851Z,99779.31
2022-10-24T11:43:38.987Z,99776.16
2022-10-24T11:46:21.475Z,99783.19
2022-10-24T11:49:07.425Z,99783.19
2022-10-24T11:51:46.312Z,99785.06
2022-10-24T11:54:23.892Z,99781.06
2022-10-24T11:56:57.654Z,99782.72
2022-10-24T11:59:26.032Z,99782.50
2022-10-24T12:01:57.245Z,99788.50
2022-10-24T12:04:55.794Z,99781.00
2022-10-24T12:08:17.994Z,99780.03
2022-10-24T12:11:22.719Z,99789.16
2022-10-24T12:14:14.543Z,99777.81
2022-10-24T12:17:19.987Z,99778.03
2022-10-24T12:19:48.740Z,99779.66
2022-10-24T12:25:09.842Z,99774.50
2022-10-24T12:27:42.669Z,99771.81
2022-10-24T12:30:10.951Z,99765.38
2022-10-24T12:32:40.589Z,99766.22
2022-10-24T12:35:31.620Z,99761.66
2022-10-24T12:38:01.690Z,99767.84
2022-10-24T12:40:55.677Z,99755.44
2022-10-24T12:43:49.546Z,99760.34
2022-10-24T12:46:22.988Z,99756.78
2022-10-24T12:49:00.306Z,99758.41
2022-10-24T12:51:46.411Z,99755.72
2022-10-24T12:54:14.727Z,99753.59
2022-10-24T12:56:52.260Z,99752.09
2022-10-24T12:59:24.264Z,99745.44
2022-10-24T13:02:48.269Z,99747.91
2022-10-24T13:05:34.216Z,99760.44
2022-10-24T13:08:26.011Z,99745.91
2022-10-24T13:11:30.761Z,99755.41
2022-10-24T13:14:52.896Z,99758.47
2022-10-24T13:17:48.918Z,99769.81
2022-10-24T13:20:20.962Z,99764.66
2022-10-24T13:22:50.909Z,99759.03
2022-10-24T13:25:34.580Z,99763.50
2022-10-24T13:28:22.285Z,99769.34
2022-10-24T13:31:00.517Z,99770.66
2022-10-24T13:33:36.317Z,99773.34
2022-10-24T13:36:14.731Z,99771.94
2022-10-24T13:38:50.744Z,99768.41
2022-10-24T13:41:35.093Z,99771.31
2022-10-24T13:44:30.226Z,99772.72
2022-10-24T13:47:27.277Z,99769.94
2022-10-24T13:50:06.052Z,99773.19
2022-10-24T13:52:40.685Z,99769.56
2022-10-24T13:55:27.997Z,99768.53
2022-10-24T13:58:11.930Z,99766.19
2022-10-24T14:00:47.510Z,99768.28
2022-10-24T14:03:19.912Z,99769.09
2022-10-24T14:06:08.426Z,99769.34
2022-10-24T14:08:46.206Z,99766.03
2022-10-24T14:11:25.297Z,99764.53
2022-10-24T14:13:56.990Z,99750.50
2022-10-24T14:16:27.545Z,99750.72
2022-10-24T14:19:27.073Z,99759.03
2022-10-24T14:21:58.011Z,99753.03
2022-10-24T14:24:26.541Z,99756.44
2022-10-24T14:26:56.932Z,99759.59
2022-10-24T14:29:31.392Z,99758.53
2022-10-24T14:32:08.833Z,99763.34
2022-10-24T14:34:38.627Z,99766.72
2022-10-24T14:37:18.238Z,99763.66
2022-10-24T14:39:46.607Z,99774.44
2022-10-24T14:42:18.439Z,99765.38
2022-10-24T14:44:47.325Z,99759.16
2022-10-24T14:47:27.596Z,99757.75
2022-10-24T14:49:56.299Z,99756.34
2022-10-24T14:52:36.688Z,99753.88
2022-10-24T14:55:21.877Z,99756.81
2022-10-24T14:57:52.401Z,99758.31
2022-10-24T15:00:24.556Z,99759.59
2022-10-24T15:02:58.795Z,99764.63
2022-10-24T15:08:36.567Z,99764.00
2022-10-24T15:11:29.705Z,99761.78
2022-10-24T15:14:11.863Z,99772.78
2022-10-24T15:16:42.126Z,99773.84
2022-10-24T15:19:18.144Z,99767.88
2022-10-24T15:21:47.523Z,99768.09
2022-10-24T15:24:25.796Z,99777.44
2022-10-24T15:27:09.118Z,99775.41
2022-10-24T15:29:40.773Z,99777.91
2022-10-24T15:32:11.961Z,99781.88
2022-10-24T15:34:40.305Z,99780.22
2022-10-24T15:37:23.193Z,99785.81
2022-10-24T15:39:51.918Z,99781.13
2022-10-24T15:42:22.428Z,99790.50
2022-10-24T15:44:51.274Z,99790.94
2022-10-24T15:47:23.887Z,99787.25
2022-10-24T15:49:52.817Z,99787.50
2022-10-24T15:52:21.202Z,99796.81
2022-10-24T15:54:49.666Z,99785.09
2022-10-24T15:57:20.002Z,99802.06
2022-10-24T15:59:48.358Z,99802.97
2022-10-24T16:02:24.958Z,99804.47
2022-10-24T16:04:53.308Z,99816.94
2022-10-24T16:07:21.693Z,99814.72
2022-10-24T16:09:50.214Z,99824.06
2022-10-24T16:12:18.669Z,99824.25
2022-10-24T16:14:47.432Z,99832.53
2022-10-24T16:17:15.496Z,99822.22
2022-10-24T16:19:43.977Z,99823.50
2022-10-24T16:22:12.653Z,99820.41
2022-10-24T16:24:41.032Z,99817.31
2022-10-24T16:27:12.309Z,99815.91
2022-10-24T16:29:40.686Z,99811.94
2022-10-24T16:32:11.168Z,99811.16
2022-10-24T16:34:39.579Z,99816.75
2022-10-24T16:37:07.929Z,99807.03
2022-10-24T16:39:36.187Z,99819.63
2022-10-24T16:42:05.337Z,99824.66
2022-10-24T16:44:36.939Z,99827.13
2022-10-24T16:47:09.992Z,99816.94
2022-10-24T16:49:38.374Z,99818.47
2022-10-24T16:52:06.904Z,99821.81
2022-10-24T16:54:35.471Z,99816.66
2022-10-24T16:57:04.184Z,99813.59
2022-10-24T16:59:32.625Z,99828.66
2022-10-24T17:02:01.390Z,99819.16
2022-10-24T17:04:33.598Z,99826.84
2022-10-24T17:07:04.310Z,99822.75
2022-10-24T17:09:32.922Z,99823.34
2022-10-24T17:12:01.208Z,99822.53
2022-10-24T17:14:30.236Z,99820.44
2022-10-24T17:16:58.636Z,99832.84
2022-10-24T17:19:32.183Z,99828.50
2022-10-24T17:22:00.688Z,99833.06
2022-10-24T17:24:29.634Z,99837.59
2022-10-24T17:26:58.102Z,99841.56
2022-10-24T17:29:35.966Z,99846.34
2022-10-24T17:32:05.579Z,99844.69
2022-10-24T17:34:34.850Z,99844.88
2022-10-24T17:37:45.719Z,99844.69
2022-10-24T17:40:19.891Z,99837.91
2022-10-24T17:42:48.810Z,99847.00
2022-10-24T17:45:24.862Z,99847.19
2022-10-24T17:47:53.289Z,99850.13
2022-10-24T17:50:21.600Z,99850.13
2022-10-24T17:52:54.469Z,99848.47
2022-10-24T17:55:44.935Z,99847.63
2022-10-24T17:58:13.965Z,99860.47
2022-10-24T18:00:42.655Z,99856.38
2022-10-24T18:03:11.273Z,99865.47
2022-10-24T18:05:40.061Z,99866.72
2022-10-24T18:08:10.470Z,99862.63
2022-10-24T18:10:40.947Z,99866.53
2022-10-24T18:13:09.545Z,99867.81
2022-10-24T18:15:38.292Z,99863.50
2022-10-24T18:18:07.273Z,99864.97
2022-10-24T18:20:36.109Z,99869.50
2022-10-24T18:23:04.787Z,99871.38
2022-10-24T18:25:33.105Z,99876.97
2022-10-24T18:28:01.554Z,99873.06
2022-10-24T18:30:29.953Z,99874.31
2022-10-24T18:32:58.411Z,99876.38
2022-10-24T18:35:28.732Z,99881.38
2022-10-24T18:37:59.889Z,99879.75
2022-10-24T18:40:28.595Z,99871.06
2022-10-24T18:43:04.216Z,99871.88
2022-10-24T18:45:33.381Z,99879.09
2022-10-24T18:48:01.925Z,99867.78
2022-10-24T18:50:33.288Z,99878.94
2022-10-24T18:53:06.609Z,99877.28
2022-10-24T18:55:36.572Z,99869.47
2022-10-24T18:58:05.198Z,99866.16
2022-10-24T19:00:38.105Z,99867.19
2022-10-24T19:03:33.683Z,99864.94
2022-10-24T19:06:30.222Z,99858.78
2022-10-24T19:08:58.268Z,99860.00
2022-10-24T19:11:26.591Z,99863.50
2022-10-24T19:13:55.052Z,99857.53
2022-10-24T19:16:28.829Z,99850.31
2022-10-24T19:19:00.866Z,99852.19
2022-10-24T19:21:29.427Z,99855.06
2022-10-24T19:23:57.726Z,99857.16
2022-10-24T19:26:26.088Z,99858.56
2022-10-24T19:28:54.406Z,99863.75
2022-10-24T19:31:22.730Z,99873.84
2022-10-24T19:33:51.080Z,99872.44
2022-10-24T19:36:19.525Z,99860.03
2022-10-24T19:38:47.965Z,99856.75
2022-10-24T19:41:16.297Z,99844.34
2022-10-24T19:43:44.622Z,99852.22
2022-10-24T19:46:19.698Z,99852.81
2022-10-24T19:48:49.492Z,99850.94
2022-10-24T19:51:19.049Z,99851.78
2022-10-24T19:53:49.761Z,99856.13
2022-10-24T19:56:29.021Z,99847.63
2022-10-24T19:58:57.807Z,99855.44
2022-10-24T20:01:30.077Z,99852.78
2022-10-24T20:03:58.967Z,99852.78
2022-10-24T20:06:27.476Z,99850.09
2022-10-24T20:08:55.953Z,99850.91
2022-10-24T20:11:24.749Z,99849.25
2022-10-24T20:13:53.165Z,99850.53
2022-10-24T20:16:21.823Z,99858.56
2022-10-24T20:18:50.155Z,99863.94
2022-10-24T20:21:20.091Z,99857.16
2022-10-24T20:23:49.529Z,99853.03
2022-10-24T20:26:22.330Z,99854.91
2022-10-24T20:28:54.400Z,99866.66
2022-10-24T20:31:39.184Z,99863.34
2022-10-24T20:34:09.959Z,99868.09
2022-10-24T20:36:47.129Z,99861.28
2022-10-24T20:39:20.750Z,99875.75
2022-10-24T20:41:53.237Z,99878.66
2022-10-24T20:44:22.952Z,99878.06
2022-10-24T20:46:53.159Z,99884.44
2022-10-24T20:49:21.433Z,99880.09
2022-10-24T20:51:49.809Z,99872.06
2022-10-24T20:54:18.165Z,99881.13
2022-10-24T20:56:46.555Z,99887.56
2022-10-24T20:59:15.703Z,99885.91
2022-10-24T21:01:44.408Z,99893.34
2022-10-24T21:04:14.706Z,99886.53
2022-10-24T21:06:45.625Z,99894.81
2022-10-24T21:09:14.894Z,99896.06
2022-10-24T21:11:43.356Z,99898.13
2022-10-24T21:14:13.751Z,99893.81
2022-10-24T21:16:42.161Z,99900.41
2022-10-24T21:19:10.464Z,99898.97
2022-10-24T21:21:38.723Z,99897.94
2022-10-24T21:24:07.373Z,99897.34
2022-10-24T21:26:38.300Z,99898.38
2022-10-24T21:29:09.310Z,99894.03
2022-10-24T21:31:55.737Z,99903.31
2022-10-24T21:34:24.724Z,99899.22
2022-10-24T21:36:54.259Z,99909.31
2022-10-24T21:39:22.586Z,99897.97
2022-10-24T21:41:51.158Z,99908.31
2022-10-24T21:44:23.273Z,99913.50
2022-10-24T21:46:57.123Z,99912.03
2022-10-24T21:49:25.692Z,99912.88
2022-10-24T21:51:54.076Z,99915.97
2022-10-24T21:54:25.108Z,99918.06
2022-10-24T21:56:53.431Z,99919.06
2022-10-24T21:59:22.328Z,99915.38
2022-10-24T22:01:52.852Z,99919.69
2022-10-24T22:04:22.140Z,99920.94
2022-10-24T22:06:50.589Z,99915.56
2022-10-24T22:09:23.787Z,99923.41
2022-10-24T22:11:54.473Z,99926.53
2022-10-24T22:14:23.070Z,99927.13
2022-10-24T22:16:51.414Z,99928.16
2022-10-24T22:19:20.139Z,99922.19
2022-10-24T22:21:52.934Z,99936.84
2022-10-24T22:24:24.101Z,99930.66
2022-10-24T22:26:53.196Z,99928.78
2022-10-24T22:29:24.566Z,99948.38
2022-10-24T22:31:54.372Z,99938.69
2022-10-24T22:34:25.959Z,99937.84
2022-10-24T22:37:16.142Z,99939.72
2022-10-24T22:39:44.900Z,99943.84
2022-10-24T22:42:16.119Z,99941.19
2022-10-24T22:44:48.332Z,99942.38
2022-10-24T22:47:49.264Z,99958.28
2022-10-24T22:50:41.898Z,99952.28
2022-10-24T22:53:14.309Z,99950.66
2022-10-24T22:56:13.721Z,99953.53
2022-10-24T22:58:44.807Z,99950.84
2022-10-24T23:01:33.599Z,99961.56
2022-10-24T23:04:30.883Z,99966.91
2022-10-24T23:07:27.990Z,99960.53
2022-10-24T23:09:56.670Z,99968.59
2022-10-24T23:12:25.465Z,99964.88
2022-10-24T23:14:54.436Z,99969.41
2022-10-24T23:17:29.719Z,99965.06
2022-10-24T23:19:58.820Z,99965.91
2022-10-24T23:22:30.190Z,99966.91
2022-10-24T23:25:02.056Z,99966.31
2022-10-24T23:27:42.437Z,99966.31
2022-10-24T23:30:23.739Z,99977.03
2022-10-24T23:32:52.815Z,99977.03
2022-10-24T23:35:22.812Z,99972.69
2022-10-24T23:37:55.445Z,99976.63
2022-10-24T23:40:37.701Z,99967.97
2022-10-24T23:43:06.520Z,99976.19
2022-10-24T23:45:56.036Z,99979.09
2022-10-24T23:49:03.408Z,99979.66
2022-10-24T23:51:44.011Z,99977.41
2022-10-24T23:54:14.143Z,99969.97
2022-10-24T23:56:42.747Z,99973.88
2022-10-24T23:59:11.139Z,99968.34
